Time;durP1;ratioP1;P1;durP2;ratioP2;P2;SDS_P1;SDS_P2;PMS_P1;PMS_P2;Temp;Humidity;BMP_temperature;BMP_pressure;BME280_temperature;BME280_humidity;BME280_pressure;Samples;Min_cycle;Max_cycle;Signal;HPM_P1;HPM_P2
2022/07/17 00:00:44;;;;;;;10.20;6.15;;;17.80;34.30;;;;;;5133810;28;20187;-49
2022/07/17 00:03:14;;;;;;;9.93;6.55;;;17.80;34.60;;;;;;5134532;28;20210;-49
2022/07/17 00:05:41;;;;;;;8.57;5.95;;;17.80;34.50;;;;;;5130052;28;20213;-49
2022/07/17 00:08:08;;;;;;;8.50;5.10;;;17.70;34.30;;;;;;5129670;28;20253;-49
2022/07/17 00:10:35;;;;;;;10.20;6.22;;;17.70;34.60;;;;;;5129535;28;20200;-50
2022/07/17 00:13:01;;;;;;;8.60;6.30;;;17.70;34.70;;;;;;5129430;28;20179;-50
2022/07/17 00:15:27;;;;;;;14.97;7.57;;;17.60;34.60;;;;;;5129369;28;20178;-49
2022/07/17 00:17:53;;;;;;;8.60;6.60;;;17.60;34.60;;;;;;5129064;28;20467;-49
2022/07/17 00:20:18;;;;;;;10.20;6.93;;;17.60;35.10;;;;;;5129328;28;20416;-50
2022/07/17 00:22:45;;;;;;;10.70;5.97;;;17.50;35.00;;;;;;5129442;28;20212;-49
2022/07/17 00:25:11;;;;;;;10.18;6.63;;;17.50;35.10;;;;;;5129057;28;20431;-50
2022/07/17 00:27:37;;;;;;;12.37;6.70;;;17.50;35.10;;;;;;5128947;28;20181;-50
2022/07/17 00:30:04;;;;;;;10.30;5.80;;;17.40;35.10;;;;;;5118090;28;20412;-50
2022/07/17 00:32:30;;;;;;;7.10;5.15;;;17.40;35.10;;;;;;5115546;28;20175;-50
2022/07/17 00:34:56;;;;;;;11.03;6.27;;;17.40;35.10;;;;;;5115345;28;20260;-49
2022/07/17 00:37:22;;;;;;;7.32;5.20;;;17.30;35.10;;;;;;5115060;28;20666;-50
2022/07/17 00:39:48;;;;;;;7.60;5.77;;;17.30;35.30;;;;;;5115363;28;20220;-49
2022/07/17 00:42:15;;;;;;;6.77;4.43;;;17.30;35.20;;;;;;5115562;28;20178;-49
2022/07/17 00:44:42;;;;;;;6.18;4.65;;;17.30;35.20;;;;;;5115055;28;20213;-49
2022/07/17 00:47:20;;;;;;;7.25;5.03;;;17.20;35.10;;;;;;5115174;28;20175;-50
2022/07/17 00:49:46;;;;;;;7.78;4.53;;;17.20;35.20;;;;;;5115050;28;20698;-49
2022/07/17 00:52:13;;;;;;;5.57;3.55;;;17.20;35.10;;;;;;5117813;28;20179;-50
2022/07/17 00:54:41;;;;;;;7.40;3.95;;;17.10;35.10;;;;;;5114875;28;20546;-50
2022/07/17 00:57:09;;;;;;;5.82;3.88;;;17.10;35.30;;;;;;5114625;28;20191;-49
2022/07/17 00:59:36;;;;;;;5.20;4.15;;;17.00;35.20;;;;;;5115091;28;20166;-49
2022/07/17 01:02:07;;;;;;;4.88;4.10;;;17.00;35.20;;;;;;5115064;28;20175;-49
2022/07/17 01:04:34;;;;;;;6.85;3.63;;;16.90;35.40;;;;;;5119229;28;20193;-49
2022/07/17 01:07:02;;;;;;;5.65;4.10;;;16.90;35.30;;;;;;5115149;28;20647;-49
2022/07/17 01:09:29;;;;;;;7.93;4.20;;;16.90;35.50;;;;;;5114648;28;20250;-49
2022/07/17 01:11:55;;;;;;;4.93;3.63;;;16.80;35.80;;;;;;5122809;22;20159;-45
2022/07/17 01:14:23;;;;;;;8.20;3.72;;;16.70;35.50;;;;;;5045915;28;20208;-45
2022/07/17 01:16:49;;;;;;;6.32;2.95;;;16.70;35.40;;;;;;5053391;28;20257;-45
2022/07/17 01:19:15;;;;;;;2.92;1.95;;;16.70;35.70;;;;;;5053868;28;20182;-45
2022/07/17 01:21:44;;;;;;;4.50;3.13;;;16.70;35.50;;;;;;5053828;28;20699;-45
2022/07/17 01:24:10;;;;;;;3.80;2.53;;;16.60;35.40;;;;;;5053884;28;20175;-45
2022/07/17 01:26:37;;;;;;;5.68;2.88;;;16.50;35.50;;;;;;5053888;28;20510;-45
2022/07/17 01:29:03;;;;;;;3.50;2.35;;;16.50;35.50;;;;;;5053690;28;20664;-45
2022/07/17 01:31:29;;;;;;;4.30;2.92;;;16.50;35.50;;;;;;5053644;28;20177;-45
2022/07/17 01:33:56;;;;;;;4.83;3.00;;;16.50;35.40;;;;;;5053637;28;20298;-45
2022/07/17 01:36:25;;;;;;;3.60;2.63;;;16.40;35.50;;;;;;5053356;28;20414;-45
2022/07/17 01:38:51;;;;;;;3.67;2.72;;;16.40;35.40;;;;;;5053207;28;20200;-45
2022/07/17 01:41:17;;;;;;;3.40;2.25;;;16.40;35.30;;;;;;5052518;28;20166;-45
2022/07/17 01:43:43;;;;;;;3.00;2.33;;;16.40;35.30;;;;;;5053597;28;20197;-45
2022/07/17 01:46:09;;;;;;;4.47;2.70;;;16.40;36.00;;;;;;5053242;28;20891;-44
2022/07/17 01:48:34;;;;;;;6.00;2.80;;;16.40;35.70;;;;;;5053403;28;20581;-45
2022/07/17 01:51:02;;;;;;;12.43;4.70;;;16.30;35.90;;;;;;5053460;28;20177;-45
2022/07/17 01:53:28;;;;;;;4.40;3.30;;;16.20;35.60;;;;;;5053244;28;20190;-45
2022/07/17 01:55:53;;;;;;;4.80;2.77;;;16.20;35.70;;;;;;5053268;28;20177;-45
2022/07/17 01:58:19;;;;;;;3.33;2.00;;;16.10;35.80;;;;;;5053542;28;20235;-45
2022/07/17 02:00:45;;;;;;;3.88;2.67;;;16.10;36.00;;;;;;5053587;28;20180;-45
2022/07/17 02:03:11;;;;;;;3.87;2.50;;;16.10;36.00;;;;;;5053245;28;20569;-44
2022/07/17 02:05:37;;;;;;;3.77;2.47;;;16.10;36.20;;;;;;5053011;28;20404;-45
2022/07/17 02:08:03;;;;;;;3.80;2.43;;;16.00;36.10;;;;;;5052929;28;20223;-45
2022/07/17 02:10:29;;;;;;;4.83;1.90;;;16.00;36.10;;;;;;5053226;28;20177;-45
2022/07/17 02:12:54;;;;;;;6.63;2.93;;;15.90;36.10;;;;;;5052739;28;21063;-45
2022/07/17 02:15:20;;;;;;;6.33;2.53;;;15.90;36.10;;;;;;5052896;28;20176;-45
2022/07/17 02:17:46;;;;;;;3.13;1.93;;;16.00;36.10;;;;;;5052888;28;20280;-45
2022/07/17 02:20:12;;;;;;;3.10;2.03;;;15.90;36.10;;;;;;5052727;28;20181;-44
2022/07/17 02:22:39;;;;;;;4.85;3.10;;;15.90;36.30;;;;;;5052658;28;20197;-45
2022/07/17 02:25:07;;;;;;;2.35;1.55;;;15.90;36.30;;;;;;5052714;28;20189;-45
2022/07/17 02:27:33;;;;;;;3.35;1.30;;;15.90;36.40;;;;;;5052425;28;20166;-45
2022/07/17 02:30:05;;;;;;;4.70;2.15;;;15.80;36.40;;;;;;5052528;28;20189;-45
2022/07/17 02:32:31;;;;;;;3.10;1.73;;;15.80;36.40;;;;;;5052766;28;20197;-45
2022/07/17 02:34:56;;;;;;;3.10;1.90;;;15.80;36.70;;;;;;5052599;28;20173;-45
2022/07/17 02:37:22;;;;;;;3.23;1.60;;;15.80;36.60;;;;;;5052417;28;20207;-45
2022/07/17 02:39:54;;;;;;;5.43;2.20;;;15.80;36.60;;;;;;5052469;28;20232;-45
2022/07/17 02:42:22;;;;;;;2.55;1.90;;;15.70;36.70;;;;;;5052473;28;20416;-44
2022/07/17 02:44:49;;;;;;;3.40;2.38;;;15.70;36.70;;;;;;5052427;28;20181;-45
2022/07/17 02:47:26;;;;;;;4.80;2.85;;;15.60;36.70;;;;;;5052222;28;20197;-45
2022/07/17 02:49:52;;;;;;;3.80;2.60;;;15.70;36.80;;;;;;5052258;28;20177;-45
2022/07/17 02:52:18;;;;;;;2.40;1.57;;;15.60;36.80;;;;;;5052017;28;20244;-45
2022/07/17 02:54:44;;;;;;;3.67;2.40;;;15.60;36.80;;;;;;5052265;28;20903;-44
2022/07/17 02:57:10;;;;;;;3.43;2.07;;;15.60;37.00;;;;;;5051945;28;20199;-44
2022/07/17 02:59:37;;;;;;;3.38;1.92;;;15.60;36.90;;;;;;5052160;28;20488;-45
2022/07/17 03:02:03;;;;;;;6.30;2.60;;;15.50;37.50;;;;;;5052110;28;20193;-45
2022/07/17 03:04:29;;;;;;;2.83;2.08;;;15.50;37.10;;;;;;5052206;28;20161;-45
2022/07/17 03:06:55;;;;;;;3.37;1.80;;;15.40;37.30;;;;;;5051934;28;20256;-45
2022/07/17 03:09:21;;;;;;;2.60;1.53;;;15.40;37.10;;;;;;5055673;28;20172;-44
2022/07/17 03:11:46;;;;;;;3.13;1.87;;;15.40;37.40;;;;;;5055657;28;20609;-44
2022/07/17 03:14:12;;;;;;;3.43;1.57;;;15.40;37.30;;;;;;5055244;28;20161;-44
2022/07/17 03:16:38;;;;;;;4.23;1.57;;;15.40;37.20;;;;;;5055742;28;20223;-43
2022/07/17 03:19:03;;;;;;;3.23;2.27;;;15.40;37.20;;;;;;5056109;28;20602;-43
2022/07/17 03:21:29;;;;;;;4.23;2.00;;;15.40;37.30;;;;;;5056413;28;20173;-44
2022/07/17 03:23:55;;;;;;;3.40;1.97;;;15.40;37.10;;;;;;5051893;28;20196;-44
2022/07/17 03:26:21;;;;;;;7.33;1.40;;;15.40;37.10;;;;;;5051844;28;20171;-45
2022/07/17 03:28:46;;;;;;;3.37;1.93;;;15.50;37.20;;;;;;5051829;28;20256;-45
2022/07/17 03:31:12;;;;;;;2.57;2.33;;;15.50;37.30;;;;;;5051896;28;20185;-45
2022/07/17 03:33:38;;;;;;;2.03;1.47;;;15.50;37.50;;;;;;5051982;28;20193;-45
2022/07/17 03:36:04;;;;;;;3.17;2.20;;;15.50;37.50;;;;;;5051890;28;20238;-45
2022/07/17 03:38:30;;;;;;;3.20;1.77;;;15.40;37.30;;;;;;5051639;28;20262;-45
2022/07/17 03:40:55;;;;;;;2.80;2.50;;;15.40;37.30;;;;;;5051771;28;20432;-45
2022/07/17 03:43:21;;;;;;;4.30;2.70;;;15.50;37.50;;;;;;5051644;28;20424;-45
2022/07/17 03:45:47;;;;;;;3.63;2.10;;;15.50;37.50;;;;;;5051454;28;20165;-45
2022/07/17 03:48:13;;;;;;;3.10;2.03;;;15.40;37.40;;;;;;5051810;28;20169;-45
2022/07/17 03:50:38;;;;;;;3.50;1.80;;;15.40;37.40;;;;;;5051647;28;20179;-45
2022/07/17 03:53:04;;;;;;;4.30;2.03;;;15.40;37.50;;;;;;5051523;28;20431;-45
2022/07/17 03:55:30;;;;;;;4.53;2.40;;;15.40;37.40;;;;;;5051505;28;20239;-45
2022/07/17 03:57:56;;;;;;;5.83;2.40;;;15.50;37.50;;;;;;5051540;28;20506;-45
2022/07/17 04:00:23;;;;;;;3.83;2.30;;;15.50;37.50;;;;;;5051614;28;20175;-45
2022/07/17 04:02:48;;;;;;;4.32;2.45;;;15.50;37.50;;;;;;5051766;28;20687;-44
2022/07/17 04:05:14;;;;;;;7.03;4.27;;;15.50;37.70;;;;;;5054065;28;20176;-45
2022/07/17 04:07:41;;;;;;;12.53;5.40;;;15.50;37.60;;;;;;5055233;28;20177;-45
2022/07/17 04:10:10;;;;;;;14.13;7.28;;;15.50;37.60;;;;;;5055226;28;20526;-45
2022/07/17 04:12:37;;;;;;;12.88;8.32;;;15.60;37.60;;;;;;5054954;28;20228;-45
2022/07/17 04:15:04;;;;;;;10.98;7.43;;;15.60;37.70;;;;;;5055170;28;20724;-45
2022/07/17 04:17:31;;;;;;;8.25;4.95;;;15.70;37.60;;;;;;5054742;28;20641;-45
2022/07/17 04:19:57;;;;;;;7.80;3.60;;;15.70;37.80;;;;;;5055248;28;20255;-45
2022/07/17 04:22:23;;;;;;;7.80;3.13;;;15.70;37.80;;;;;;5054997;28;20704;-45
2022/07/17 04:24:48;;;;;;;4.00;2.63;;;15.80;38.10;;;;;;5055249;28;20793;-45
2022/07/17 04:27:14;;;;;;;6.30;2.20;;;15.80;37.90;;;;;;5054675;28;20748;-45
2022/07/17 04:29:40;;;;;;;2.50;1.60;;;15.90;38.00;;;;;;5054853;28;20399;-45
2022/07/17 04:32:06;;;;;;;10.20;2.40;;;16.00;37.90;;;;;;5054756;28;20490;-45
2022/07/17 04:34:33;;;;;;;3.83;2.45;;;16.10;38.10;;;;;;5054825;28;20400;-45
2022/07/17 04:37:00;;;;;;;3.45;2.17;;;16.20;37.80;;;;;;5054441;28;20185;-44
2022/07/17 04:39:26;;;;;;;2.45;1.73;;;16.20;37.80;;;;;;5054756;28;20203;-45
2022/07/17 04:41:52;;;;;;;4.33;2.13;;;16.30;37.90;;;;;;5054589;28;20169;-46
2022/07/17 04:44:18;;;;;;;2.90;2.00;;;16.40;38.10;;;;;;5054549;28;20405;-45
2022/07/17 04:46:44;;;;;;;4.35;1.63;;;16.50;37.90;;;;;;5054363;28;20162;-45
2022/07/17 04:49:10;;;;;;;3.30;2.15;;;16.60;37.90;;;;;;5054575;28;20185;-45
2022/07/17 04:51:36;;;;;;;5.78;2.53;;;16.60;38.00;;;;;;5054415;28;20178;-45
2022/07/17 04:54:02;;;;;;;3.10;2.47;;;16.70;38.00;;;;;;5054444;28;20180;-45
2022/07/17 04:56:28;;;;;;;4.67;2.67;;;16.80;38.00;;;;;;5054188;28;20266;-45
2022/07/17 04:58:54;;;;;;;5.03;2.60;;;16.90;38.00;;;;;;5054290;28;20448;-45
2022/07/17 05:01:19;;;;;;;3.27;1.93;;;17.00;37.80;;;;;;5054330;28;20174;-45
2022/07/17 05:03:45;;;;;;;4.30;2.47;;;17.10;37.80;;;;;;5054216;28;20243;-45
2022/07/17 05:06:11;;;;;;;4.53;1.90;;;17.20;37.70;;;;;;5054041;28;20180;-45
2022/07/17 05:08:37;;;;;;;6.07;1.57;;;17.30;37.50;;;;;;5054260;28;20609;-44
2022/07/17 05:11:03;;;;;;;3.25;1.98;;;17.40;37.40;;;;;;5054076;28;20267;-45
2022/07/17 05:13:29;;;;;;;3.10;1.58;;;17.50;37.40;;;;;;5053813;28;20613;-45
2022/07/17 05:15:55;;;;;;;2.53;1.60;;;17.60;37.20;;;;;;5053914;28;20227;-45
2022/07/17 05:18:21;;;;;;;5.43;2.37;;;17.70;37.20;;;;;;5054025;28;20280;-45
2022/07/17 05:20:46;;;;;;;5.30;2.20;;;17.70;37.10;;;;;;5053964;28;20187;-45
2022/07/17 05:23:12;;;;;;;2.37;1.37;;;17.80;37.10;;;;;;5054136;28;20196;-45
2022/07/17 05:25:38;;;;;;;4.30;2.10;;;17.90;37.00;;;;;;5053876;28;20170;-45
2022/07/17 05:28:04;;;;;;;2.83;1.80;;;17.90;37.00;;;;;;5053824;28;20628;-45
2022/07/17 05:30:30;;;;;;;4.22;2.13;;;18.00;36.70;;;;;;5053745;28;20416;-45
2022/07/17 05:32:55;;;;;;;5.50;1.80;;;18.00;36.30;;;;;;5053967;28;20201;-45
2022/07/17 05:35:21;;;;;;;3.40;1.47;;;18.10;36.40;;;;;;5052390;28;20173;-45
2022/07/17 05:37:47;;;;;;;3.57;1.83;;;18.20;36.60;;;;;;5053344;28;20197;-45
2022/07/17 05:40:13;;;;;;;2.30;1.60;;;18.30;36.60;;;;;;5053543;28;20415;-45
2022/07/17 05:42:39;;;;;;;7.00;1.83;;;18.40;36.40;;;;;;5053445;28;20195;-45
2022/07/17 05:45:05;;;;;;;2.13;1.60;;;18.50;36.30;;;;;;5053465;28;20498;-45
2022/07/17 05:47:31;;;;;;;4.20;1.60;;;18.60;36.20;;;;;;5053145;28;20258;-45
2022/07/17 05:49:57;;;;;;;7.23;1.77;;;18.70;36.30;;;;;;5053405;28;20185;-45
2022/07/17 05:52:23;;;;;;;5.60;1.88;;;18.80;35.90;;;;;;5053264;28;20436;-45
2022/07/17 05:54:49;;;;;;;3.15;1.63;;;18.80;35.80;;;;;;5053292;28;20173;-45
2022/07/17 05:57:15;;;;;;;2.10;1.07;;;18.80;35.10;;;;;;5052902;28;20191;-45
2022/07/17 05:59:40;;;;;;;3.60;1.53;;;18.80;35.60;;;;;;5053554;28;20181;-45
2022/07/17 06:02:07;;;;;;;2.40;1.50;;;18.90;35.60;;;;;;5053042;28;20192;-45
2022/07/17 06:04:33;;;;;;;3.65;1.98;;;19.00;35.30;;;;;;5053168;28;20226;-45
2022/07/17 06:06:59;;;;;;;2.42;1.20;;;19.10;35.00;;;;;;5052909;28;20183;-45
2022/07/17 06:09:25;;;;;;;2.43;1.33;;;19.20;34.60;;;;;;5053013;28;20244;-45
2022/07/17 06:11:51;;;;;;;1.90;1.00;;;19.30;35.10;;;;;;5053222;28;20972;-45
2022/07/17 06:14:17;;;;;;;3.33;1.13;;;19.40;35.00;;;;;;5053185;28;20474;-45
2022/07/17 06:16:43;;;;;;;4.75;1.50;;;19.50;34.90;;;;;;5052687;28;20169;-45
2022/07/17 06:19:08;;;;;;;3.93;1.67;;;19.60;34.80;;;;;;5052948;28;20303;-45
2022/07/17 06:21:34;;;;;;;4.40;1.53;;;19.70;34.90;;;;;;5052666;28;20180;-45
2022/07/17 06:24:00;;;;;;;2.43;1.10;;;19.80;34.70;;;;;;5052712;28;20173;-45
2022/07/17 06:26:26;;;;;;;2.77;1.13;;;20.00;34.00;;;;;;5052106;28;20399;-45
2022/07/17 06:28:52;;;;;;;2.17;1.10;;;20.00;34.00;;;;;;5052677;28;20280;-45
2022/07/17 06:31:17;;;;;;;3.43;1.83;;;20.20;34.00;;;;;;5052911;28;20176;-45
2022/07/17 06:33:43;;;;;;;3.37;1.10;;;20.20;33.70;;;;;;5052765;28;20680;-45
2022/07/17 06:36:09;;;;;;;1.80;0.80;;;20.30;33.80;;;;;;5052412;28;20641;-45
2022/07/17 06:38:35;;;;;;;1.90;0.97;;;20.30;33.30;;;;;;5052520;28;20808;-45
2022/07/17 06:41:02;;;;;;;3.15;1.00;;;20.40;33.50;;;;;;5051044;28;20408;-45
2022/07/17 06:43:28;;;;;;;2.08;0.90;;;20.50;33.20;;;;;;5052335;28;20201;-44
2022/07/17 06:45:54;;;;;;;3.93;1.20;;;20.60;33.10;;;;;;5052193;28;20170;-44
2022/07/17 06:48:21;;;;;;;4.05;1.10;;;20.70;32.80;;;;;;5052396;28;20435;-45
2022/07/17 06:50:47;;;;;;;4.03;1.55;;;20.80;33.10;;;;;;5052293;28;20200;-45
2022/07/17 06:53:14;;;;;;;5.63;1.25;;;20.90;32.80;;;;;;5052202;28;20283;-45
2022/07/17 06:55:40;;;;;;;4.85;1.20;;;20.90;32.40;;;;;;5051971;28;20219;-45
2022/07/17 06:58:06;;;;;;;3.75;1.40;;;21.00;32.50;;;;;;5052157;28;20299;-45
2022/07/17 07:00:32;;;;;;;2.90;1.73;;;21.10;32.50;;;;;;5052185;28;20572;-45
2022/07/17 07:02:58;;;;;;;3.28;1.20;;;21.20;32.30;;;;;;5052077;28;20587;-45
2022/07/17 07:05:24;;;;;;;2.73;1.50;;;21.30;32.70;;;;;;5052094;28;20169;-45
2022/07/17 07:07:50;;;;;;;2.77;1.13;;;21.40;32.60;;;;;;5051740;28;20419;-45
2022/07/17 07:10:15;;;;;;;3.00;1.70;;;21.60;32.70;;;;;;5052019;28;20423;-45
2022/07/17 07:12:41;;;;;;;6.57;1.37;;;21.70;32.10;;;;;;5050638;28;20212;-45
2022/07/17 07:15:08;;;;;;;2.77;1.27;;;21.70;31.60;;;;;;5052039;28;20584;-45
2022/07/17 07:17:34;;;;;;;2.00;1.20;;;21.80;31.60;;;;;;5051614;28;20565;-45
2022/07/17 07:20:04;;;;;;;2.38;1.25;;;21.90;31.70;;;;;;5052499;28;20181;-45
2022/07/17 07:22:31;;;;;;;2.63;1.20;;;21.90;31.40;;;;;;5051758;28;20185;-45
2022/07/17 07:24:56;;;;;;;2.50;0.85;;;21.90;30.50;;;;;;5060763;22;20727;-47
2022/07/17 07:27:22;;;;;;;3.17;1.80;;;21.90;31.00;;;;;;5031373;28;20248;-47
2022/07/17 07:29:49;;;;;;;5.30;1.20;;;21.90;30.80;;;;;;5032343;28;20194;-46
2022/07/17 07:32:15;;;;;;;2.00;0.90;;;21.90;31.00;;;;;;5031923;28;20752;-47
2022/07/17 07:34:40;;;;;;;2.07;1.00;;;21.90;31.40;;;;;;5031696;28;20194;-47
2022/07/17 07:37:07;;;;;;;6.13;1.00;;;21.90;31.60;;;;;;5031709;28;20408;-47
2022/07/17 07:39:32;;;;;;;4.07;1.65;;;22.00;31.80;;;;;;5033277;28;20177;-47
2022/07/17 07:41:59;;;;;;;4.67;1.40;;;22.10;31.70;;;;;;5035922;28;20245;-46
2022/07/17 07:44:25;;;;;;;6.03;1.07;;;22.20;31.70;;;;;;5035927;28;20424;-45
2022/07/17 07:46:51;;;;;;;2.85;0.70;;;22.30;31.70;;;;;;5035468;28;20409;-47
2022/07/17 07:49:17;;;;;;;1.90;0.90;;;22.40;32.30;;;;;;5035767;28;20185;-47
2022/07/17 07:51:43;;;;;;;2.53;1.17;;;22.50;32.10;;;;;;5035826;28;20411;-48
2022/07/17 07:54:09;;;;;;;3.20;2.27;;;22.70;31.50;;;;;;5035531;28;20939;-45
2022/07/17 07:56:36;;;;;;;3.80;1.17;;;22.80;31.30;;;;;;5035209;28;20501;-47
2022/07/17 07:59:02;;;;;;;5.65;1.63;;;22.90;31.30;;;;;;5035408;28;20186;-46
2022/07/17 08:01:28;;;;;;;2.10;1.15;;;23.10;31.10;;;;;;5035351;28;20177;-46
2022/07/17 08:03:54;;;;;;;1.88;0.90;;;23.20;30.40;;;;;;5035373;28;20685;-48
2022/07/17 08:06:20;;;;;;;2.33;1.00;;;23.30;30.60;;;;;;5035414;28;20178;-47
2022/07/17 08:08:46;;;;;;;5.38;1.60;;;23.20;30.70;;;;;;5035391;28;20774;-47
2022/07/17 08:11:12;;;;;;;1.87;0.80;;;23.30;30.80;;;;;;5035194;28;20300;-49
2022/07/17 08:13:38;;;;;;;2.77;1.40;;;23.30;30.90;;;;;;5035180;28;20244;-49
2022/07/17 08:16:04;;;;;;;2.47;1.48;;;23.30;30.80;;;;;;5035171;28;20462;-50
2022/07/17 08:18:30;;;;;;;3.55;1.25;;;23.20;30.70;;;;;;5035088;28;20521;-50
2022/07/17 08:20:56;;;;;;;3.40;1.20;;;23.20;31.20;;;;;;5035106;28;20162;-50
2022/07/17 08:23:21;;;;;;;2.80;1.37;;;23.30;31.10;;;;;;5034969;28;20604;-48
2022/07/17 08:25:47;;;;;;;1.87;1.10;;;23.40;31.10;;;;;;5034718;28;20190;-49
2022/07/17 08:28:14;;;;;;;5.30;1.30;;;23.40;30.20;;;;;;5035203;28;20188;-49
2022/07/17 08:30:40;;;;;;;4.73;1.20;;;23.40;30.80;;;;;;5035220;28;20451;-50
2022/07/17 08:33:07;;;;;;;3.27;1.50;;;23.40;31.10;;;;;;5034833;28;20765;-50
2022/07/17 08:35:35;;;;;;;2.73;0.87;;;23.60;30.00;;;;;;5034446;28;20420;-51
2022/07/17 08:38:01;;;;;;;7.07;1.27;;;23.70;29.90;;;;;;5034746;28;20440;-49
2022/07/17 08:40:30;;;;;;;3.90;1.30;;;23.70;29.30;;;;;;5034729;28;20810;-50
2022/07/17 08:42:57;;;;;;;3.70;0.80;;;23.80;29.70;;;;;;5034732;28;20420;-49
2022/07/17 08:45:24;;;;;;;2.20;0.83;;;23.90;30.40;;;;;;5016731;28;20428;-48
2022/07/17 08:47:51;;;;;;;1.60;0.70;;;24.00;30.20;;;;;;5034353;28;20416;-50
2022/07/17 08:50:21;;;;;;;3.53;0.90;;;24.20;29.50;;;;;;5034333;28;20420;-49
2022/07/17 08:52:47;;;;;;;2.00;1.10;;;24.20;29.40;;;;;;5034595;28;20493;-49
2022/07/17 08:55:14;;;;;;;2.17;1.17;;;24.20;29.60;;;;;;5034324;28;20511;-50
2022/07/17 08:57:41;;;;;;;5.03;1.30;;;24.20;29.00;;;;;;5034434;28;20202;-50
2022/07/17 09:00:10;;;;;;;3.80;1.13;;;24.30;29.80;;;;;;5034353;28;20401;-50
2022/07/17 09:02:37;;;;;;;3.03;1.10;;;24.40;29.70;;;;;;5016490;28;20459;-50
2022/07/17 09:05:02;;;;;;;4.70;1.20;;;24.40;29.50;;;;;;5034104;28;20425;-50
2022/07/17 09:07:28;;;;;;;8.27;1.30;;;24.60;29.60;;;;;;5034077;28;20411;-50
2022/07/17 09:09:54;;;;;;;3.73;1.37;;;24.60;29.20;;;;;;5034121;28;20436;-50
2022/07/17 09:12:29;;;;;;;3.50;0.90;;;24.60;29.00;;;;;;5034430;28;20186;-50
2022/07/17 09:14:55;;;;;;;2.10;0.90;;;24.60;29.00;;;;;;5034041;28;20239;-50
2022/07/17 09:17:22;;;;;;;7.33;1.43;;;24.60;29.40;;;;;;5033856;28;20413;-50
2022/07/17 09:19:48;;;;;;;3.60;1.00;;;24.60;28.90;;;;;;5033705;28;20421;-51
2022/07/17 09:22:24;;;;;;;4.90;1.00;;;24.60;27.80;;;;;;5033757;28;20536;-50
2022/07/17 09:24:53;;;;;;;3.97;1.77;;;24.60;27.50;;;;;;5033574;28;20452;-50
2022/07/17 09:27:24;;;;;;;2.27;1.57;;;24.60;28.30;;;;;;5033724;28;20942;-49
2022/07/17 09:30:01;;;;;;;4.43;1.10;;;24.80;28.40;;;;;;5033905;28;20483;-49
2022/07/17 09:32:34;;;;;;;2.77;1.20;;;24.90;28.70;;;;;;5033824;28;20401;-51
2022/07/17 09:35:02;;;;;;;4.93;1.10;;;25.00;27.90;;;;;;5033734;28;20429;-47
2022/07/17 09:37:29;;;;;;;4.60;1.33;;;25.10;27.20;;;;;;5033394;28;20958;-48
2022/07/17 09:39:57;;;;;;;6.60;1.00;;;25.20;27.70;;;;;;5033821;28;20412;-49
2022/07/17 09:42:31;;;;;;;2.53;1.00;;;25.30;27.60;;;;;;5033615;28;20400;-49
2022/07/17 09:45:08;;;;;;;2.20;1.10;;;25.50;27.40;;;;;;5033514;28;20930;-50
2022/07/17 09:47:37;;;;;;;2.87;1.27;;;25.60;26.90;;;;;;5033033;28;20432;-49
2022/07/17 09:50:05;;;;;;;4.43;1.37;;;25.70;27.40;;;;;;5033451;28;20430;-49
2022/07/17 09:52:33;;;;;;;2.70;1.00;;;25.80;26.90;;;;;;5033435;28;20421;-49
2022/07/17 09:55:01;;;;;;;4.40;1.23;;;25.80;26.50;;;;;;5033306;28;20610;-49
2022/07/17 09:57:33;;;;;;;1.67;0.77;;;25.80;26.90;;;;;;5033380;28;20805;-50
2022/07/17 10:00:06;;;;;;;2.57;1.30;;;25.80;26.70;;;;;;5033125;28;20419;-50
2022/07/17 10:02:33;;;;;;;2.93;1.47;;;25.80;27.30;;;;;;5032527;28;20397;-48
2022/07/17 10:04:59;;;;;;;2.63;1.03;;;25.90;26.70;;;;;;5033206;28;20452;-50
2022/07/17 10:07:26;;;;;;;5.30;1.67;;;26.00;27.20;;;;;;5032853;28;20458;-49
2022/07/17 10:09:53;;;;;;;4.67;1.00;;;26.00;26.90;;;;;;5033061;28;20409;-51
2022/07/17 10:12:19;;;;;;;3.50;0.80;;;26.10;26.80;;;;;;5032848;28;20455;-50
2022/07/17 10:14:49;;;;;;;6.93;1.73;;;26.20;26.80;;;;;;5033115;28;20452;-50
2022/07/17 10:17:21;;;;;;;2.80;1.40;;;26.30;27.10;;;;;;5032548;28;20496;-51
2022/07/17 10:19:53;;;;;;;3.87;1.50;;;26.30;25.70;;;;;;5032837;28;20756;-49
2022/07/17 10:22:20;;;;;;;3.93;1.40;;;26.50;26.00;;;;;;5033144;28;20402;-50
2022/07/17 10:24:53;;;;;;;4.13;0.80;;;26.60;27.00;;;;;;5032583;28;20444;-51
2022/07/17 10:27:23;;;;;;;2.87;1.20;;;26.80;25.90;;;;;;5032836;28;20397;-51
2022/07/17 10:30:06;;;;;;;5.97;1.20;;;26.90;25.10;;;;;;5032695;28;20460;-49
2022/07/17 10:32:33;;;;;;;2.97;0.93;;;27.00;25.50;;;;;;5032599;28;20833;-49
2022/07/17 10:35:05;;;;;;;3.20;0.93;;;27.00;25.10;;;;;;5032800;28;20843;-49
2022/07/17 10:37:36;;;;;;;3.10;1.07;;;27.00;25.00;;;;;;5032318;28;20876;-51
2022/07/17 10:40:15;;;;;;;3.00;1.17;;;27.10;25.40;;;;;;5032763;28;20413;-50
2022/07/17 10:42:43;;;;;;;2.40;1.80;;;27.00;25.60;;;;;;5032447;28;20416;-49
2022/07/17 10:45:37;;;;;;;3.80;1.30;;;27.10;25.20;;;;;;5032448;28;20448;-50
2022/07/17 10:48:05;;;;;;;5.10;1.40;;;27.20;24.90;;;;;;5030421;28;20428;-49
2022/07/17 10:50:45;;;;;;;2.20;0.93;;;27.30;24.60;;;;;;5032605;28;20421;-50
2022/07/17 10:53:28;;;;;;;2.00;1.07;;;27.40;24.50;;;;;;5032447;28;20408;-49
2022/07/17 10:56:05;;;;;;;2.83;1.30;;;27.50;24.60;;;;;;5032343;28;20397;-50
2022/07/17 10:58:37;;;;;;;4.00;1.17;;;27.70;23.60;;;;;;5032472;28;20551;-50
2022/07/17 11:01:06;;;;;;;3.80;0.90;;;27.70;23.80;;;;;;5032506;28;20386;-48
2022/07/17 11:03:54;;;;;;;4.27;0.90;;;27.70;23.20;;;;;;5032197;28;20400;-51
2022/07/17 11:06:31;;;;;;;2.60;0.80;;;27.70;22.30;;;;;;5032355;28;20393;-48
2022/07/17 11:09:01;;;;;;;2.10;1.20;;;27.90;22.30;;;;;;5032219;28;20454;-50
2022/07/17 11:11:43;;;;;;;2.47;0.93;;;27.90;22.70;;;;;;5032182;28;20412;-51
2022/07/17 11:14:12;;;;;;;3.10;1.40;;;28.00;23.20;;;;;;5031955;28;20792;-49
2022/07/17 11:16:45;;;;;;;3.53;1.20;;;28.10;22.80;;;;;;5031831;28;20447;-49
2022/07/17 11:19:11;;;;;;;1.87;0.80;;;28.20;22.60;;;;;;5031995;28;20460;-49
2022/07/17 11:21:47;;;;;;;3.63;1.23;;;28.20;21.50;;;;;;5031993;28;20443;-51
2022/07/17 11:24:13;;;;;;;2.30;0.80;;;28.20;21.00;;;;;;5031780;28;20205;-48
2022/07/17 11:26:39;;;;;;;3.60;1.13;;;28.20;22.00;;;;;;5031772;28;20807;-49
2022/07/17 11:29:05;;;;;;;2.13;0.80;;;28.20;22.40;;;;;;5031949;28;20539;-48
2022/07/17 11:31:31;;;;;;;7.80;1.60;;;28.30;22.00;;;;;;5031769;28;20540;-48
2022/07/17 11:33:59;;;;;;;1.90;0.93;;;28.30;21.30;;;;;;5032027;28;20459;-49
2022/07/17 11:36:31;;;;;;;4.53;1.00;;;28.20;21.70;;;;;;5031570;28;20408;-52
2022/07/17 11:38:58;;;;;;;2.13;0.77;;;28.30;22.20;;;;;;5031746;28;20459;-52
2022/07/17 11:41:34;;;;;;;3.00;0.97;;;28.40;21.30;;;;;;5031735;28;20409;-50
2022/07/17 11:44:01;;;;;;;2.33;1.03;;;28.50;22.00;;;;;;5031881;28;20428;-50
2022/07/17 11:46:29;;;;;;;2.83;1.30;;;28.60;20.80;;;;;;5031479;28;20439;-51
2022/07/17 11:48:55;;;;;;;3.60;1.23;;;28.70;20.20;;;;;;5031711;28;20496;-50
2022/07/17 11:51:20;;;;;;;2.93;0.80;;;28.80;19.40;;;;;;5031737;28;20492;-48
2022/07/17 11:53:47;;;;;;;6.10;1.20;;;28.90;19.60;;;;;;5031881;28;20617;-49
2022/07/17 11:56:22;;;;;;;3.53;1.20;;;28.90;20.70;;;;;;5014221;28;20182;-51
2022/07/17 11:58:49;;;;;;;2.80;1.10;;;29.00;20.60;;;;;;5031589;28;20443;-49
2022/07/17 12:01:15;;;;;;;4.80;1.50;;;29.10;20.50;;;;;;5031752;28;20405;-51
2022/07/17 12:03:41;;;;;;;3.57;1.10;;;29.10;20.80;;;;;;5031657;28;20489;-51
2022/07/17 12:06:07;;;;;;;2.00;1.00;;;29.10;20.80;;;;;;5031586;28;20404;-51
2022/07/17 12:08:33;;;;;;;2.00;0.83;;;29.00;20.20;;;;;;5031591;28;20185;-51
2022/07/17 12:11:09;;;;;;;4.60;1.60;;;29.10;20.60;;;;;;5031727;28;20412;-51
2022/07/17 12:13:43;;;;;;;4.40;0.90;;;29.30;21.30;;;;;;5031699;28;20459;-49
2022/07/17 12:16:45;;;;;;;3.10;0.60;;;29.50;20.20;;;;;;5031411;28;20411;-51
2022/07/17 12:19:18;;;;;;;4.20;1.20;;;29.40;18.60;;;;;;4970382;28;20579;-50
2022/07/17 12:21:56;;;;;;;3.20;0.93;;;29.40;19.40;;;;;;4970462;28;20502;-50
2022/07/17 12:24:27;;;;;;;4.47;1.27;;;29.40;20.20;;;;;;4970349;28;20479;-51
2022/07/17 12:26:56;;;;;;;2.70;1.20;;;29.40;20.60;;;;;;4973506;28;20411;-49
2022/07/17 12:29:22;;;;;;;4.60;1.10;;;29.50;19.90;;;;;;4973926;28;20423;-51
2022/07/17 12:31:48;;;;;;;8.33;1.30;;;29.70;20.00;;;;;;4973787;28;20422;-49
2022/07/17 12:34:14;;;;;;;6.07;1.40;;;29.90;19.30;;;;;;4957542;28;20451;-49
2022/07/17 12:36:40;;;;;;;2.20;0.90;;;30.10;19.60;;;;;;4973553;28;21015;-49
2022/07/17 12:39:06;;;;;;;2.20;0.90;;;30.20;19.60;;;;;;4973633;28;20447;-49
2022/07/17 12:41:32;;;;;;;2.10;0.60;;;30.40;19.10;;;;;;4973606;28;20420;-51
2022/07/17 12:43:58;;;;;;;2.03;0.73;;;30.50;18.60;;;;;;4973498;28;20427;-51
2022/07/17 12:46:23;;;;;;;2.23;0.80;;;30.50;18.50;;;;;;4973309;28;20669;-50